Impacts METAR Board
IDs:

KPHL - Philadelphia Intl, PA, US

Updated at: 0300 UTC 06 Dec 2019
Potential Impact None Slight Moderate High
Time 05/15Z 05/16Z 05/17Z 05/18Z 05/19Z 05/20Z 05/21Z 05/22Z 05/23Z 06/00Z 06/01Z 06/02Z 06/03Z
Temp42 43 44 43 44 43 43 43 43 42 42 41 41
Dewpt25 21 17 18 18 20 20 21 21 21 21 21 22
Altim29.87 29.87 29.87 29.88 29.89 29.92 29.96 30.00 30.03 30.05 30.09 30.10 30.12
VIS10 10 10 10 10 10 10 10 10 10 10 10 10
CIG-- -- -- 55 60 55 55 60 55 60 55 55 50
CoverSCTSCTSCTBKNBKNOVCOVCOVCOVCOVCOVCOVCBKN
FltCatVFRVFRVFRVFRVFRVFRVFRVFRVFRVFRVFRVFRVFR
WX--------------------------
WDir270310310300290290280280280280290270280
WSpd16 18 18 14 16 18 15 13 17 12 9 8 6
WGst-- 31 23 22 27 24 23 23 24 -- -- -- --
Raw hourly METARs
KPHL 051454Z 27016KT 10SM FEW044 SCT070 SCT140 06/M04 A2987 RMK AO2 PK WND 26028/1434 SLP113 T00561039 51035 $
KPHL 051554Z 31018G31KT 10SM SCT044 06/M06 A2987 RMK AO2 PK WND 27032/1520 SLP115 T00611061 $
KPHL 051654Z 31018G23KT 10SM SCT050 07/M08 A2987 RMK AO2 PK WND 29034/1637 SLP114 T00671083 $
KPHL 051754Z 30014G22KT 10SM BKN055 BKN070 06/M08 A2988 RMK AO2 PK WND 28026/1738 SLP116 T00611078 10067 20028 53003 $
KPHL 051854Z 29016G27KT 10SM BKN060 07/M08 A2989 RMK AO2 PK WND 31030/1821 SLP122 T00671078 $
KPHL 051954Z 29018G24KT 10SM OVC055 06/M07 A2992 RMK AO2 PK WND 29030/1902 SLP132 T00611067 $
KPHL 052054Z 28015G23KT 10SM OVC055 06/M07 A2996 RMK AO2 SLP146 T00611067 53030 $
KPHL 052154Z 28013G23KT 10SM OVC060 06/M06 A3000 RMK AO2 PK WND 28026/2057 SLP158 T00611061 /
KPHL 052254Z 28017G24KT 10SM OVC055 06/M06 A3003 RMK AO2 SLP169 T00611061 $
KPHL 052354Z 28012KT 10SM OVC060 06/M06 A3005 RMK AO2 SLP176 T00561061 10067 20056 51030 $
KPHL 060054Z 29009KT 10SM OVC055 06/M06 A3009 RMK AO2 SLP187 T00561061 $
KPHL 060154Z 27008KT 10SM OVC055 05/M06 A3010 RMK AO2 SLP191 T00501061 $
KPHL 060254Z 28006KT 10SM BKN050 05/M06 A3012 RMK AO2 SLP200 T00501056 51024 $



Page loaded:  03:40 UTC  |   07:40 PM Pacific  |   08:40 PM Mountain  |   09:40 PM Central  |   10:40 PM Eastern

 

ADVISORIES

FORECASTS

FORECASTS

OBSERVATIONS

USER TOOLS

ABOUT US